Tropical Cyclones
[Index]
Main Index Home Page Stock Weather Photos Extreme Storms Discussion Storm News and Storm Chasing Reports Tropical Cyclones / Hurricanes / Typhoons Weather Data and Links Wild Fires / Bushfires Weather Observation Techniques Weather Picture Catalogue Tornado Pictures and Reports Stock Video Footage and DVDs for sale
Season 1996-1997 Tropical Cyclone KELI Track Map
Season 1996-1997 Summaries: [BoM-AU] [JTWC-AU] [JTWC-SIO] [JTWC-SPAC] [JTWC-SH]
<<- Previous TC | JTWC 1996-1997 Season | Next TC ->>

click for intensity scale information  Lat/long Grid: Show Hide

 Date Labels: Show Hide

Joint Typhoon Warning Centre Cyclone Data

Name: KELI

05 Jun 1997 00:00 UTC to 15 Jun 1997 06:00 UTC

    date/time    lat    long     hPa   cat  kts
1997-06-05 00   10.5   168.0W                 15          
1997-06-05 06   10.2   168.6W                 15          
1997-06-05 12    9.9   169.2W                 15          
1997-06-05 18    9.7   169.7W                 15          
1997-06-06 00    9.5   170.1W                 15          
1997-06-06 06    9.4   170.4W                 15          
1997-06-06 12    9.3   170.7W                 15          
1997-06-06 18    9.2   170.9W                 15          
1997-06-07 00    9.1   171.1W                 15          
1997-06-07 06    9.0   171.4W                 15          
1997-06-07 12    8.9   171.7W                 15          
1997-06-07 18    8.8   172.0W                 20          
1997-06-08 00    8.8   172.3W                 20          
1997-06-08 06    8.8   172.6W                 25          
1997-06-08 12    8.7   173.0W                 25          
1997-06-08 18    8.6   173.4W                 25          
1997-06-09 00    8.5   173.8W                 25          
1997-06-09 06    8.3   174.2W                 30          
1997-06-09 12    8.3   174.8W                 35          
1997-06-09 18    8.5   175.7W                 35          
1997-06-10 00    9.0   176.8W           1     40          
1997-06-10 06    9.4   177.9W           1     45          
1997-06-10 12   10.0   178.9W           1     50          
1997-06-10 18   10.3   179.6W           2     55          
1997-06-11 00   10.5   179.8            2     60          
1997-06-11 06   10.6   179.3            2     65          
1997-06-11 12   10.6   178.8            2     70          
1997-06-11 18   10.3   178.8            3     80          
1997-06-12 00   10.2   179.4            3     90          
1997-06-12 06   10.7   179.8W           4    100          
1997-06-12 12   11.3   179.0W           4    110          
1997-06-12 18   12.0   178.2W           4    115          
1997-06-13 00   12.8   177.3W           4    100          
1997-06-13 06   13.6   176.4W           3     85          
1997-06-13 12   14.3   175.5W           2     70          
1997-06-13 18   14.8   174.7W           2     60          
1997-06-14 00   15.2   173.7W           2     55          
1997-06-14 06   15.9   172.4W           2     55          
1997-06-14 12   16.8   170.8W           1     50          
1997-06-14 18   18.1   168.9W           1     45          
1997-06-15 00   19.5   166.7W           1     40          
1997-06-15 06   21.1   164.2W           1     40          
Winds are 1-min average.

Tropical cyclone tracks developed by Michael Bath using data from the Joint Typhoon Warning Centre Best Tracks and Google Maps.


[Australian Severe Weather index] [Copyright Notice] [Email Contacts] [Search This Site] [Privacy Policy]
Document: tropical_cyclone_keli.htm Updated: 18 September 2016